sensor_id;sensor_type;location;lat;lon;timestamp;temperature;humidity
3134;DHT22;1577;49.912;10.924;2023-04-15T00:00:37;6.50;99.90
3134;DHT22;1577;49.912;10.924;2023-04-15T00:03:03;6.40;99.90
3134;DHT22;1577;49.912;10.924;2023-04-15T00:05:30;6.40;99.90
3134;DHT22;1577;49.912;10.924;2023-04-15T00:07:56;6.40;99.90
3134;DHT22;1577;49.912;10.924;2023-04-15T00:10:23;6.40;99.90
3134;DHT22;1577;49.912;10.924;2023-04-15T00:12:49;6.50;99.90
3134;DHT22;1577;49.912;10.924;2023-04-15T00:15:15;6.50;99.90
3134;DHT22;1577;49.912;10.924;2023-04-15T00:17:41;6.50;99.90
3134;DHT22;1577;49.912;10.924;2023-04-15T00:20:06;6.40;99.90
3134;DHT22;1577;49.912;10.924;2023-04-15T00:22:32;6.50;99.90
3134;DHT22;1577;49.912;10.924;2023-04-15T00:24:58;6.50;99.90
3134;DHT22;1577;49.912;10.924;2023-04-15T00:27:23;6.50;99.90
3134;DHT22;1577;49.912;10.924;2023-04-15T00:29:49;6.50;99.90
3134;DHT22;1577;49.912;10.924;2023-04-15T00:32:14;6.50;99.90
3134;DHT22;1577;49.912;10.924;2023-04-15T00:34:40;6.50;99.90
3134;DHT22;1577;49.912;10.924;2023-04-15T00:37:06;6.40;99.90
3134;DHT22;1577;49.912;10.924;2023-04-15T00:39:32;6.50;99.90
3134;DHT22;1577;49.912;10.924;2023-04-15T00:41:57;6.50;99.90
3134;DHT22;1577;49.912;10.924;2023-04-15T00:44:23;6.40;99.90
3134;DHT22;1577;49.912;10.924;2023-04-15T00:46:50;6.50;99.90
3134;DHT22;1577;49.912;10.924;2023-04-15T00:49:16;6.40;99.90
3134;DHT22;1577;49.912;10.924;2023-04-15T00:51:43;6.30;99.90
3134;DHT22;1577;49.912;10.924;2023-04-15T00:54:09;6.30;99.90
3134;DHT22;1577;49.912;10.924;2023-04-15T00:56:35;6.30;99.90
3134;DHT22;1577;49.912;10.924;2023-04-15T00:59:02;6.30;99.90
3134;DHT22;1577;49.912;10.924;2023-04-15T01:01:28;6.30;99.90
3134;DHT22;1577;49.912;10.924;2023-04-15T01:03:57;6.40;99.90
3134;DHT22;1577;49.912;10.924;2023-04-15T01:06:23;6.30;99.90
3134;DHT22;1577;49.912;10.924;2023-04-15T01:08:49;6.30;99.90
3134;DHT22;1577;49.912;10.924;2023-04-15T01:11:16;6.20;99.90
3134;DHT22;1577;49.912;10.924;2023-04-15T01:13:41;6.20;99.90
3134;DHT22;1577;49.912;10.924;2023-04-15T01:16:08;6.20;99.90
3134;DHT22;1577;49.912;10.924;2023-04-15T01:18:34;6.20;99.90
3134;DHT22;1577;49.912;10.924;2023-04-15T01:21:02;6.20;99.90
3134;DHT22;1577;49.912;10.924;2023-04-15T01:23:29;6.30;99.90
3134;DHT22;1577;49.912;10.924;2023-04-15T01:25:55;6.30;99.90
3134;DHT22;1577;49.912;10.924;2023-04-15T01:28:21;6.30;99.90
3134;DHT22;1577;49.912;10.924;2023-04-15T01:30:47;6.20;99.90
3134;DHT22;1577;49.912;10.924;2023-04-15T01:33:13;6.30;99.90
3134;DHT22;1577;49.912;10.924;2023-04-15T01:35:39;6.30;99.90
3134;DHT22;1577;49.912;10.924;2023-04-15T01:38:06;6.30;99.90
3134;DHT22;1577;49.912;10.924;2023-04-15T01:40:33;6.30;99.90
3134;DHT22;1577;49.912;10.924;2023-04-15T01:42:59;6.30;99.90
3134;DHT22;1577;49.912;10.924;2023-04-15T01:45:25;6.40;99.90
3134;DHT22;1577;49.912;10.924;2023-04-15T01:47:51;6.40;99.90
3134;DHT22;1577;49.912;10.924;2023-04-15T01:50:17;6.40;99.90
3134;DHT22;1577;49.912;10.924;2023-04-15T01:52:43;6.40;99.90
3134;DHT22;1577;49.912;10.924;2023-04-15T01:55:10;6.50;99.90
3134;DHT22;1577;49.912;10.924;2023-04-15T01:57:35;6.50;99.90
3134;DHT22;1577;49.912;10.924;2023-04-15T02:00:01;6.50;99.90
3134;DHT22;1577;49.912;10.924;2023-04-15T02:02:28;6.50;99.90
3134;DHT22;1577;49.912;10.924;2023-04-15T02:04:55;6.40;99.90
3134;DHT22;1577;49.912;10.924;2023-04-15T02:07:20;6.30;99.90
3134;DHT22;1577;49.912;10.924;2023-04-15T02:09:46;6.40;99.90
3134;DHT22;1577;49.912;10.924;2023-04-15T02:12:12;6.30;99.90
3134;DHT22;1577;49.912;10.924;2023-04-15T02:14:38;6.40;99.90
3134;DHT22;1577;49.912;10.924;2023-04-15T02:17:03;6.40;99.90
3134;DHT22;1577;49.912;10.924;2023-04-15T02:19:33;6.40;99.90
3134;DHT22;1577;49.912;10.924;2023-04-15T02:21:59;6.30;99.90
3134;DHT22;1577;49.912;10.924;2023-04-15T02:24:27;6.30;99.90
3134;DHT22;1577;49.912;10.924;2023-04-15T02:26:53;6.20;99.90
3134;DHT22;1577;49.912;10.924;2023-04-15T02:29:18;6.20;99.90
3134;DHT22;1577;49.912;10.924;2023-04-15T02:31:44;6.20;99.90
3134;DHT22;1577;49.912;10.924;2023-04-15T02:34:10;6.20;99.90
3134;DHT22;1577;49.912;10.924;2023-04-15T02:36:35;6.20;99.90
3134;DHT22;1577;49.912;10.924;2023-04-15T02:39:01;6.20;99.90
3134;DHT22;1577;49.912;10.924;2023-04-15T02:41:28;6.20;99.90
3134;DHT22;1577;49.912;10.924;2023-04-15T02:43:54;6.20;99.90
3134;DHT22;1577;49.912;10.924;2023-04-15T02:46:21;6.30;99.90
3134;DHT22;1577;49.912;10.924;2023-04-15T02:48:47;6.20;99.90
3134;DHT22;1577;49.912;10.924;2023-04-15T02:51:17;6.20;99.90
3134;DHT22;1577;49.912;10.924;2023-04-15T02:53:44;6.30;99.90
3134;DHT22;1577;49.912;10.924;2023-04-15T02:56:10;6.20;99.90
3134;DHT22;1577;49.912;10.924;2023-04-15T02:58:38;6.30;99.90
3134;DHT22;1577;49.912;10.924;2023-04-15T03:01:04;6.30;99.90
3134;DHT22;1577;49.912;10.924;2023-04-15T03:03:30;6.40;99.90
3134;DHT22;1577;49.912;10.924;2023-04-15T03:05:55;6.40;99.90
3134;DHT22;1577;49.912;10.924;2023-04-15T03:08:21;6.30;99.90
3134;DHT22;1577;49.912;10.924;2023-04-15T03:10:47;6.40;99.90
3134;DHT22;1577;49.912;10.924;2023-04-15T03:13:12;6.40;99.90
3134;DHT22;1577;49.912;10.924;2023-04-15T03:15:38;6.40;99.90
3134;DHT22;1577;49.912;10.924;2023-04-15T03:18:03;6.40;99.90
3134;DHT22;1577;49.912;10.924;2023-04-15T03:20:29;6.40;99.90
3134;DHT22;1577;49.912;10.924;2023-04-15T03:22:55;6.50;99.90
3134;DHT22;1577;49.912;10.924;2023-04-15T03:25:20;6.50;99.90
3134;DHT22;1577;49.912;10.924;2023-04-15T03:27:46;6.40;99.90
3134;DHT22;1577;49.912;10.924;2023-04-15T03:30:12;6.40;99.90
3134;DHT22;1577;49.912;10.924;2023-04-15T03:32:38;6.40;99.90
3134;DHT22;1577;49.912;10.924;2023-04-15T03:35:04;6.40;99.90
3134;DHT22;1577;49.912;10.924;2023-04-15T03:37:29;6.40;99.90
3134;DHT22;1577;49.912;10.924;2023-04-15T03:39:55;6.40;99.90
3134;DHT22;1577;49.912;10.924;2023-04-15T03:42:21;6.40;99.90
3134;DHT22;1577;49.912;10.924;2023-04-15T03:44:46;6.40;99.90
3134;DHT22;1577;49.912;10.924;2023-04-15T03:47:12;6.40;99.90
3134;DHT22;1577;49.912;10.924;2023-04-15T03:49:37;6.40;99.90
3134;DHT22;1577;49.912;10.924;2023-04-15T03:52:03;6.40;99.90
3134;DHT22;1577;49.912;10.924;2023-04-15T03:54:28;6.50;99.90
3134;DHT22;1577;49.912;10.924;2023-04-15T03:56:54;6.50;99.90
3134;DHT22;1577;49.912;10.924;2023-04-15T03:59:21;6.50;99.90
3134;DHT22;1577;49.912;10.924;2023-04-15T04:01:46;6.60;99.90
3134;DHT22;1577;49.912;10.924;2023-04-15T04:04:12;6.60;99.90
3134;DHT22;1577;49.912;10.924;2023-04-15T04:06:38;6.50;99.90
3134;DHT22;1577;49.912;10.924;2023-04-15T04:09:03;6.40;99.90
3134;DHT22;1577;49.912;10.924;2023-04-15T04:11:29;6.30;99.90
3134;DHT22;1577;49.912;10.924;2023-04-15T04:13:55;6.30;99.90
3134;DHT22;1577;49.912;10.924;2023-04-15T04:16:20;6.40;99.90
3134;DHT22;1577;49.912;10.924;2023-04-15T04:18:46;6.40;99.90
3134;DHT22;1577;49.912;10.924;2023-04-15T04:21:11;6.50;99.90
3134;DHT22;1577;49.912;10.924;2023-04-15T04:23:37;6.50;99.90
3134;DHT22;1577;49.912;10.924;2023-04-15T04:26:03;6.60;99.90
3134;DHT22;1577;49.912;10.924;2023-04-15T04:28:28;6.70;99.90
3134;DHT22;1577;49.912;10.924;2023-04-15T04:30:55;6.60;99.90
3134;DHT22;1577;49.912;10.924;2023-04-15T04:33:20;6.60;99.90
3134;DHT22;1577;49.912;10.924;2023-04-15T04:35:46;6.60;99.90
3134;DHT22;1577;49.912;10.924;2023-04-15T04:38:12;6.70;99.90
3134;DHT22;1577;49.912;10.924;2023-04-15T04:40:37;6.80;99.90
3134;DHT22;1577;49.912;10.924;2023-04-15T04:43:04;6.70;99.90
3134;DHT22;1577;49.912;10.924;2023-04-15T04:45:29;6.80;99.90
3134;DHT22;1577;49.912;10.924;2023-04-15T04:47:55;6.80;99.90
3134;DHT22;1577;49.912;10.924;2023-04-15T04:50:21;6.90;99.90
3134;DHT22;1577;49.912;10.924;2023-04-15T04:52:46;6.80;99.90
3134;DHT22;1577;49.912;10.924;2023-04-15T04:55:12;6.80;99.90
3134;DHT22;1577;49.912;10.924;2023-04-15T04:57:38;6.80;99.90
3134;DHT22;1577;49.912;10.924;2023-04-15T05:00:07;6.80;99.90
3134;DHT22;1577;49.912;10.924;2023-04-15T05:02:33;6.80;99.90
3134;DHT22;1577;49.912;10.924;2023-04-15T05:04:59;6.70;99.90
3134;DHT22;1577;49.912;10.924;2023-04-15T05:07:24;6.70;99.90
3134;DHT22;1577;49.912;10.924;2023-04-15T05:09:50;6.70;99.90
3134;DHT22;1577;49.912;10.924;2023-04-15T05:12:15;6.80;99.90
3134;DHT22;1577;49.912;10.924;2023-04-15T05:14:42;6.80;99.90
3134;DHT22;1577;49.912;10.924;2023-04-15T05:17:08;6.90;99.90
3134;DHT22;1577;49.912;10.924;2023-04-15T05:19:34;6.90;99.90
3134;DHT22;1577;49.912;10.924;2023-04-15T05:22:00;7.00;99.90
3134;DHT22;1577;49.912;10.924;2023-04-15T05:24:25;7.00;99.90
3134;DHT22;1577;49.912;10.924;2023-04-15T05:26:51;7.00;99.90
3134;DHT22;1577;49.912;10.924;2023-04-15T05:29:17;7.00;99.90
3134;DHT22;1577;49.912;10.924;2023-04-15T05:31:43;7.00;99.90
3134;DHT22;1577;49.912;10.924;2023-04-15T05:34:08;7.10;99.90
3134;DHT22;1577;49.912;10.924;2023-04-15T05:36:36;7.20;99.90
3134;DHT22;1577;49.912;10.924;2023-04-15T05:39:01;7.20;99.90
3134;DHT22;1577;49.912;10.924;2023-04-15T05:41:27;7.20;99.90
3134;DHT22;1577;49.912;10.924;2023-04-15T05:43:52;7.30;99.90
3134;DHT22;1577;49.912;10.924;2023-04-15T05:46:18;7.30;99.90
3134;DHT22;1577;49.912;10.924;2023-04-15T05:48:44;7.30;99.90
3134;DHT22;1577;49.912;10.924;2023-04-15T05:51:10;7.40;99.90
3134;DHT22;1577;49.912;10.924;2023-04-15T05:53:36;7.30;99.90
3134;DHT22;1577;49.912;10.924;2023-04-15T05:56:01;7.30;99.90
3134;DHT22;1577;49.912;10.924;2023-04-15T05:58:27;7.30;99.90
3134;DHT22;1577;49.912;10.924;2023-04-15T06:00:52;7.30;99.90
3134;DHT22;1577;49.912;10.924;2023-04-15T06:03:18;7.30;99.90
3134;DHT22;1577;49.912;10.924;2023-04-15T06:05:43;7.20;99.90
3134;DHT22;1577;49.912;10.924;2023-04-15T06:08:09;7.30;99.90
3134;DHT22;1577;49.912;10.924;2023-04-15T06:10:36;7.30;99.90
3134;DHT22;1577;49.912;10.924;2023-04-15T06:13:04;7.30;99.90
3134;DHT22;1577;49.912;10.924;2023-04-15T06:15:30;7.30;99.90
3134;DHT22;1577;49.912;10.924;2023-04-15T06:17:56;7.30;99.90
3134;DHT22;1577;49.912;10.924;2023-04-15T06:20:22;7.30;99.90
3134;DHT22;1577;49.912;10.924;2023-04-15T06:22:48;7.40;99.90
3134;DHT22;1577;49.912;10.924;2023-04-15T06:25:14;7.30;99.90
3134;DHT22;1577;49.912;10.924;2023-04-15T06:27:40;7.30;99.90
3134;DHT22;1577;49.912;10.924;2023-04-15T06:30:06;7.30;99.90
3134;DHT22;1577;49.912;10.924;2023-04-15T06:32:32;7.40;99.90
3134;DHT22;1577;49.912;10.924;2023-04-15T06:34:58;7.40;99.90
3134;DHT22;1577;49.912;10.924;2023-04-15T06:37:23;7.40;99.90
3134;DHT22;1577;49.912;10.924;2023-04-15T06:39:49;7.50;99.90
3134;DHT22;1577;49.912;10.924;2023-04-15T06:42:15;7.50;99.90
3134;DHT22;1577;49.912;10.924;2023-04-15T06:44:41;7.50;99.90
3134;DHT22;1577;49.912;10.924;2023-04-15T06:47:06;7.50;99.90
3134;DHT22;1577;49.912;10.924;2023-04-15T06:49:33;7.50;99.90
3134;DHT22;1577;49.912;10.924;2023-04-15T06:51:59;7.60;99.90
3134;DHT22;1577;49.912;10.924;2023-04-15T06:54:25;7.60;99.90
3134;DHT22;1577;49.912;10.924;2023-04-15T06:56:51;7.70;99.90
3134;DHT22;1577;49.912;10.924;2023-04-15T06:59:17;7.80;99.90
3134;DHT22;1577;49.912;10.924;2023-04-15T07:01:43;7.80;99.90
3134;DHT22;1577;49.912;10.924;2023-04-15T07:04:09;7.70;99.90
3134;DHT22;1577;49.912;10.924;2023-04-15T07:06:35;7.80;99.90
3134;DHT22;1577;49.912;10.924;2023-04-15T07:09:01;7.90;99.90
3134;DHT22;1577;49.912;10.924;2023-04-15T07:11:27;7.90;99.90
3134;DHT22;1577;49.912;10.924;2023-04-15T07:13:53;8.00;99.90
3134;DHT22;1577;49.912;10.924;2023-04-15T07:16:18;8.00;99.90
3134;DHT22;1577;49.912;10.924;2023-04-15T07:18:44;8.10;99.90
3134;DHT22;1577;49.912;10.924;2023-04-15T07:21:10;8.10;99.90
3134;DHT22;1577;49.912;10.924;2023-04-15T07:23:36;8.20;99.90
3134;DHT22;1577;49.912;10.924;2023-04-15T07:26:02;8.10;99.90
3134;DHT22;1577;49.912;10.924;2023-04-15T07:28:27;8.20;99.90
3134;DHT22;1577;49.912;10.924;2023-04-15T07:30:54;8.20;99.90
3134;DHT22;1577;49.912;10.924;2023-04-15T07:33:19;8.30;99.90
3134;DHT22;1577;49.912;10.924;2023-04-15T07:35:45;8.20;99.90
3134;DHT22;1577;49.912;10.924;2023-04-15T07:38:11;8.20;99.90
3134;DHT22;1577;49.912;10.924;2023-04-15T07:40:38;8.30;99.90
3134;DHT22;1577;49.912;10.924;2023-04-15T07:43:04;8.30;99.90
3134;DHT22;1577;49.912;10.924;2023-04-15T07:45:30;8.40;99.90
3134;DHT22;1577;49.912;10.924;2023-04-15T07:47:56;8.40;99.90
3134;DHT22;1577;49.912;10.924;2023-04-15T07:50:21;8.40;99.90
3134;DHT22;1577;49.912;10.924;2023-04-15T07:52:51;8.50;99.90
3134;DHT22;1577;49.912;10.924;2023-04-15T07:55:17;8.40;99.90
3134;DHT22;1577;49.912;10.924;2023-04-15T07:57:46;8.40;99.90
3134;DHT22;1577;49.912;10.924;2023-04-15T08:00:15;8.40;99.90
3134;DHT22;1577;49.912;10.924;2023-04-15T08:02:44;8.40;99.90
3134;DHT22;1577;49.912;10.924;2023-04-15T08:05:12;8.40;99.90
3134;DHT22;1577;49.912;10.924;2023-04-15T08:07:38;8.30;99.90
3134;DHT22;1577;49.912;10.924;2023-04-15T08:10:04;8.40;99.90
3134;DHT22;1577;49.912;10.924;2023-04-15T08:12:30;8.40;99.90
3134;DHT22;1577;49.912;10.924;2023-04-15T08:14:56;8.30;99.90
3134;DHT22;1577;49.912;10.924;2023-04-15T08:17:22;8.20;99.90
3134;DHT22;1577;49.912;10.924;2023-04-15T08:19:48;8.20;99.90
3134;DHT22;1577;49.912;10.924;2023-04-15T08:22:14;8.20;99.90
3134;DHT22;1577;49.912;10.924;2023-04-15T08:24:39;8.20;99.90
3134;DHT22;1577;49.912;10.924;2023-04-15T08:27:05;8.10;99.90
3134;DHT22;1577;49.912;10.924;2023-04-15T08:29:32;8.10;99.90
3134;DHT22;1577;49.912;10.924;2023-04-15T08:31:59;8.10;99.90
3134;DHT22;1577;49.912;10.924;2023-04-15T08:34:26;8.10;99.90
3134;DHT22;1577;49.912;10.924;2023-04-15T08:36:52;8.10;99.90
3134;DHT22;1577;49.912;10.924;2023-04-15T08:39:18;8.10;99.90
3134;DHT22;1577;49.912;10.924;2023-04-15T08:42:03;8.10;99.90
3134;DHT22;1577;49.912;10.924;2023-04-15T08:44:34;8.10;99.90
3134;DHT22;1577;49.912;10.924;2023-04-15T08:47:07;8.10;99.90
3134;DHT22;1577;49.912;10.924;2023-04-15T08:49:35;8.10;99.90
3134;DHT22;1577;49.912;10.924;2023-04-15T08:52:03;8.10;99.90
3134;DHT22;1577;49.912;10.924;2023-04-15T08:54:29;8.10;99.90
3134;DHT22;1577;49.912;10.924;2023-04-15T08:56:56;8.10;99.90
3134;DHT22;1577;49.912;10.924;2023-04-15T08:59:22;8.10;99.90
3134;DHT22;1577;49.912;10.924;2023-04-15T09:01:51;8.00;99.90
3134;DHT22;1577;49.912;10.924;2023-04-15T09:04:18;8.10;99.90
3134;DHT22;1577;49.912;10.924;2023-04-15T09:06:43;8.10;99.90
3134;DHT22;1577;49.912;10.924;2023-04-15T09:09:09;8.10;99.90
3134;DHT22;1577;49.912;10.924;2023-04-15T09:11:35;8.10;99.90
3134;DHT22;1577;49.912;10.924;2023-04-15T09:14:01;8.20;99.90
3134;DHT22;1577;49.912;10.924;2023-04-15T09:16:26;8.20;99.90
3134;DHT22;1577;49.912;10.924;2023-04-15T09:18:52;8.20;99.90
3134;DHT22;1577;49.912;10.924;2023-04-15T09:21:18;8.30;99.90
3134;DHT22;1577;49.912;10.924;2023-04-15T09:23:58;8.30;99.90
3134;DHT22;1577;49.912;10.924;2023-04-15T09:26:36;8.30;99.90
3134;DHT22;1577;49.912;10.924;2023-04-15T09:29:06;8.40;99.90
3134;DHT22;1577;49.912;10.924;2023-04-15T09:31:32;8.40;99.90
3134;DHT22;1577;49.912;10.924;2023-04-15T09:33:58;8.40;99.90
3134;DHT22;1577;49.912;10.924;2023-04-15T09:36:24;8.50;99.90
3134;DHT22;1577;49.912;10.924;2023-04-15T09:38:55;8.60;99.90
3134;DHT22;1577;49.912;10.924;2023-04-15T09:41:21;8.60;99.90
3134;DHT22;1577;49.912;10.924;2023-04-15T09:43:47;8.60;99.90
3134;DHT22;1577;49.912;10.924;2023-04-15T09:46:13;8.70;99.90
3134;DHT22;1577;49.912;10.924;2023-04-15T09:48:39;8.70;99.90
3134;DHT22;1577;49.912;10.924;2023-04-15T09:51:04;8.80;99.90
3134;DHT22;1577;49.912;10.924;2023-04-15T09:53:33;8.80;99.90
3134;DHT22;1577;49.912;10.924;2023-04-15T09:55:59;8.90;99.90
3134;DHT22;1577;49.912;10.924;2023-04-15T09:58:36;8.90;99.90
3134;DHT22;1577;49.912;10.924;2023-04-15T10:01:04;8.90;99.90
3134;DHT22;1577;49.912;10.924;2023-04-15T10:03:32;8.90;99.90
3134;DHT22;1577;49.912;10.924;2023-04-15T10:06:00;9.00;99.90
3134;DHT22;1577;49.912;10.924;2023-04-15T10:08:28;9.00;99.90
3134;DHT22;1577;49.912;10.924;2023-04-15T10:10:54;9.00;99.90
3134;DHT22;1577;49.912;10.924;2023-04-15T10:13:23;9.00;99.90
3134;DHT22;1577;49.912;10.924;2023-04-15T10:18:19;9.00;99.90
3134;DHT22;1577;49.912;10.924;2023-04-15T10:20:47;9.00;99.90
3134;DHT22;1577;49.912;10.924;2023-04-15T10:23:14;9.00;99.90
3134;DHT22;1577;49.912;10.924;2023-04-15T10:25:40;9.10;99.90
3134;DHT22;1577;49.912;10.924;2023-04-15T10:28:10;9.20;99.90
3134;DHT22;1577;49.912;10.924;2023-04-15T10:30:35;9.20;99.90
3134;DHT22;1577;49.912;10.924;2023-04-15T10:33:02;9.30;99.90
3134;DHT22;1577;49.912;10.924;2023-04-15T10:35:29;9.40;99.90
3134;DHT22;1577;49.912;10.924;2023-04-15T10:37:55;9.50;99.90
3134;DHT22;1577;49.912;10.924;2023-04-15T10:40:29;9.40;99.90
3134;DHT22;1577;49.912;10.924;2023-04-15T10:43:01;9.60;99.90
3134;DHT22;1577;49.912;10.924;2023-04-15T10:45:36;9.70;99.90
3134;DHT22;1577;49.912;10.924;2023-04-15T10:48:04;9.90;99.90
3134;DHT22;1577;49.912;10.924;2023-04-15T10:50:31;10.10;99.90
3134;DHT22;1577;49.912;10.924;2023-04-15T10:52:57;10.20;99.90
3134;DHT22;1577;49.912;10.924;2023-04-15T10:55:25;10.40;99.90
3134;DHT22;1577;49.912;10.924;2023-04-15T10:57:53;10.50;99.90
3134;DHT22;1577;49.912;10.924;2023-04-15T11:00:20;10.60;99.90
3134;DHT22;1577;49.912;10.924;2023-04-15T11:03:05;10.60;99.90
3134;DHT22;1577;49.912;10.924;2023-04-15T11:08:10;10.40;99.90
3134;DHT22;1577;49.912;10.924;2023-04-15T11:15:36;10.30;99.90
3134;DHT22;1577;49.912;10.924;2023-04-15T11:20:34;10.10;99.90
3134;DHT22;1577;49.912;10.924;2023-04-15T11:23:00;9.90;99.90
3134;DHT22;1577;49.912;10.924;2023-04-15T11:25:27;9.90;99.90
3134;DHT22;1577;49.912;10.924;2023-04-15T11:27:54;9.80;99.90
3134;DHT22;1577;49.912;10.924;2023-04-15T11:30:22;9.80;99.90
3134;DHT22;1577;49.912;10.924;2023-04-15T11:32:48;9.70;99.90
3134;DHT22;1577;49.912;10.924;2023-04-15T11:35:16;9.70;99.90
3134;DHT22;1577;49.912;10.924;2023-04-15T11:37:43;9.70;99.90
3134;DHT22;1577;49.912;10.924;2023-04-15T11:40:09;9.70;99.90
3134;DHT22;1577;49.912;10.924;2023-04-15T11:42:35;9.70;99.90
3134;DHT22;1577;49.912;10.924;2023-04-15T11:45:12;9.70;99.90
3134;DHT22;1577;49.912;10.924;2023-04-15T11:47:41;9.70;99.90
3134;DHT22;1577;49.912;10.924;2023-04-15T11:52:54;9.90;99.90
3134;DHT22;1577;49.912;10.924;2023-04-15T11:55:22;9.90;99.90
3134;DHT22;1577;49.912;10.924;2023-04-15T11:57:49;10.10;99.90
3134;DHT22;1577;49.912;10.924;2023-04-15T12:00:15;10.30;99.90
3134;DHT22;1577;49.912;10.924;2023-04-15T12:02:42;10.40;99.90
3134;DHT22;1577;49.912;10.924;2023-04-15T12:05:08;10.40;99.90
3134;DHT22;1577;49.912;10.924;2023-04-15T12:07:57;10.40;99.90
3134;DHT22;1577;49.912;10.924;2023-04-15T12:10:24;10.30;99.90
3134;DHT22;1577;49.912;10.924;2023-04-15T12:12:51;10.30;99.90
3134;DHT22;1577;49.912;10.924;2023-04-15T12:15:21;10.30;99.90
3134;DHT22;1577;49.912;10.924;2023-04-15T12:17:46;10.40;99.90
3134;DHT22;1577;49.912;10.924;2023-04-15T12:20:12;10.50;99.90
3134;DHT22;1577;49.912;10.924;2023-04-15T12:22:38;10.60;99.90
3134;DHT22;1577;49.912;10.924;2023-04-15T12:25:05;10.60;99.90
3134;DHT22;1577;49.912;10.924;2023-04-15T12:27:30;10.60;99.90
3134;DHT22;1577;49.912;10.924;2023-04-15T12:30:04;10.60;99.90
3134;DHT22;1577;49.912;10.924;2023-04-15T12:32:34;10.70;99.90
3134;DHT22;1577;49.912;10.924;2023-04-15T12:34:59;10.70;99.90
3134;DHT22;1577;49.912;10.924;2023-04-15T12:37:25;10.80;99.90
3134;DHT22;1577;49.912;10.924;2023-04-15T12:39:51;10.90;99.90
3134;DHT22;1577;49.912;10.924;2023-04-15T12:42:18;10.90;99.90
3134;DHT22;1577;49.912;10.924;2023-04-15T12:44:44;11.00;99.90
3134;DHT22;1577;49.912;10.924;2023-04-15T12:47:11;11.10;99.90
3134;DHT22;1577;49.912;10.924;2023-04-15T12:49:37;11.20;99.90
3134;DHT22;1577;49.912;10.924;2023-04-15T12:52:03;11.20;99.90
3134;DHT22;1577;49.912;10.924;2023-04-15T12:54:30;11.30;99.90
3134;DHT22;1577;49.912;10.924;2023-04-15T12:56:56;11.30;99.90
3134;DHT22;1577;49.912;10.924;2023-04-15T12:59:22;11.30;99.90
3134;DHT22;1577;49.912;10.924;2023-04-15T13:01:51;11.20;99.90
3134;DHT22;1577;49.912;10.924;2023-04-15T13:04:18;11.10;99.90
3134;DHT22;1577;49.912;10.924;2023-04-15T13:06:44;11.00;99.90
3134;DHT22;1577;49.912;10.924;2023-04-15T13:09:09;10.90;99.90
3134;DHT22;1577;49.912;10.924;2023-04-15T13:11:35;10.80;99.90
3134;DHT22;1577;49.912;10.924;2023-04-15T13:14:02;10.70;99.90
3134;DHT22;1577;49.912;10.924;2023-04-15T13:16:29;10.70;99.90
3134;DHT22;1577;49.912;10.924;2023-04-15T13:18:54;10.70;99.90
3134;DHT22;1577;49.912;10.924;2023-04-15T13:21:20;10.70;99.90
3134;DHT22;1577;49.912;10.924;2023-04-15T13:23:47;10.70;99.90
3134;DHT22;1577;49.912;10.924;2023-04-15T13:26:14;10.60;99.90
3134;DHT22;1577;49.912;10.924;2023-04-15T13:28:39;10.50;99.90
3134;DHT22;1577;49.912;10.924;2023-04-15T13:31:05;10.50;99.90
3134;DHT22;1577;49.912;10.924;2023-04-15T13:33:30;10.50;99.90
3134;DHT22;1577;49.912;10.924;2023-04-15T13:35:56;10.40;99.90
3134;DHT22;1577;49.912;10.924;2023-04-15T13:38:23;10.30;99.90
3134;DHT22;1577;49.912;10.924;2023-04-15T13:40:49;10.20;99.90
3134;DHT22;1577;49.912;10.924;2023-04-15T13:43:15;10.20;99.90
3134;DHT22;1577;49.912;10.924;2023-04-15T13:45:42;10.20;99.90
3134;DHT22;1577;49.912;10.924;2023-04-15T13:48:07;10.20;99.90
3134;DHT22;1577;49.912;10.924;2023-04-15T13:50:33;10.20;99.90
3134;DHT22;1577;49.912;10.924;2023-04-15T13:52:58;10.10;99.90
3134;DHT22;1577;49.912;10.924;2023-04-15T13:55:24;10.10;99.90
3134;DHT22;1577;49.912;10.924;2023-04-15T13:57:50;10.10;99.90
3134;DHT22;1577;49.912;10.924;2023-04-15T14:00:16;10.10;99.90
3134;DHT22;1577;49.912;10.924;2023-04-15T14:02:42;10.20;99.90
3134;DHT22;1577;49.912;10.924;2023-04-15T14:05:09;10.20;99.90
3134;DHT22;1577;49.912;10.924;2023-04-15T14:07:35;10.20;99.90
3134;DHT22;1577;49.912;10.924;2023-04-15T14:10:01;10.20;99.90
3134;DHT22;1577;49.912;10.924;2023-04-15T14:12:27;10.20;99.90
3134;DHT22;1577;49.912;10.924;2023-04-15T14:14:53;10.10;99.90
3134;DHT22;1577;49.912;10.924;2023-04-15T14:17:18;10.10;99.90
3134;DHT22;1577;49.912;10.924;2023-04-15T14:19:44;10.10;99.90
3134;DHT22;1577;49.912;10.924;2023-04-15T14:22:09;10.00;99.90
3134;DHT22;1577;49.912;10.924;2023-04-15T14:24:35;10.00;99.90
3134;DHT22;1577;49.912;10.924;2023-04-15T14:27:01;9.90;99.90
3134;DHT22;1577;49.912;10.924;2023-04-15T14:29:27;9.90;99.90
3134;DHT22;1577;49.912;10.924;2023-04-15T14:31:52;9.80;99.90
3134;DHT22;1577;49.912;10.924;2023-04-15T14:34:18;9.80;99.90
3134;DHT22;1577;49.912;10.924;2023-04-15T14:36:46;9.70;99.90
3134;DHT22;1577;49.912;10.924;2023-04-15T14:39:12;9.70;99.90
3134;DHT22;1577;49.912;10.924;2023-04-15T14:41:38;9.70;99.90
3134;DHT22;1577;49.912;10.924;2023-04-15T14:44:04;9.70;99.90
3134;DHT22;1577;49.912;10.924;2023-04-15T14:46:30;9.80;99.90
3134;DHT22;1577;49.912;10.924;2023-04-15T14:48:56;9.80;99.90
3134;DHT22;1577;49.912;10.924;2023-04-15T14:51:22;9.80;99.90
3134;DHT22;1577;49.912;10.924;2023-04-15T14:53:47;9.90;99.90
3134;DHT22;1577;49.912;10.924;2023-04-15T14:56:13;9.90;99.90
3134;DHT22;1577;49.912;10.924;2023-04-15T14:58:39;9.90;99.90
3134;DHT22;1577;49.912;10.924;2023-04-15T15:01:04;9.90;99.90
3134;DHT22;1577;49.912;10.924;2023-04-15T15:03:30;9.90;99.90
3134;DHT22;1577;49.912;10.924;2023-04-15T15:05:56;9.90;99.90
3134;DHT22;1577;49.912;10.924;2023-04-15T15:08:24;9.80;99.90
3134;DHT22;1577;49.912;10.924;2023-04-15T15:10:50;9.90;99.90
3134;DHT22;1577;49.912;10.924;2023-04-15T15:13:16;9.90;99.90
3134;DHT22;1577;49.912;10.924;2023-04-15T15:15:42;10.00;99.90
3134;DHT22;1577;49.912;10.924;2023-04-15T15:18:09;10.00;99.90
3134;DHT22;1577;49.912;10.924;2023-04-15T15:20:35;9.90;99.90
3134;DHT22;1577;49.912;10.924;2023-04-15T15:23:00;10.00;99.90
3134;DHT22;1577;49.912;10.924;2023-04-15T15:25:26;9.90;99.90
3134;DHT22;1577;49.912;10.924;2023-04-15T15:27:52;10.00;99.90
3134;DHT22;1577;49.912;10.924;2023-04-15T15:30:18;10.00;99.90
3134;DHT22;1577;49.912;10.924;2023-04-15T15:32:43;10.10;99.90
3134;DHT22;1577;49.912;10.924;2023-04-15T15:35:09;10.10;99.90
3134;DHT22;1577;49.912;10.924;2023-04-15T15:37:35;10.20;99.90
3134;DHT22;1577;49.912;10.924;2023-04-15T15:40:03;10.10;99.90
3134;DHT22;1577;49.912;10.924;2023-04-15T15:42:33;10.10;99.90
3134;DHT22;1577;49.912;10.924;2023-04-15T15:44:59;10.10;99.90
3134;DHT22;1577;49.912;10.924;2023-04-15T15:47:25;10.00;99.90
3134;DHT22;1577;49.912;10.924;2023-04-15T15:49:56;10.00;99.90
3134;DHT22;1577;49.912;10.924;2023-04-15T15:52:21;10.00;99.90
3134;DHT22;1577;49.912;10.924;2023-04-15T15:54:47;9.90;99.90
3134;DHT22;1577;49.912;10.924;2023-04-15T15:57:13;9.90;99.90
3134;DHT22;1577;49.912;10.924;2023-04-15T15:59:38;9.90;99.90
3134;DHT22;1577;49.912;10.924;2023-04-15T16:02:14;9.90;99.90
3134;DHT22;1577;49.912;10.924;2023-04-15T16:04:40;9.90;99.90
3134;DHT22;1577;49.912;10.924;2023-04-15T16:07:07;10.00;99.90